Time;durP1;ratioP1;P1;durP2;ratioP2;P2;SDS_P1;SDS_P2;PMS_P1;PMS_P2;Temp;Humidity;BMP_temperature;BMP_pressure;BME280_temperature;BME280_humidity;BME280_pressure;Samples;Min_cycle;Max_cycle;Signal;HPM_P1;HPM_P2
2022/12/17 13:06:14;;;;;;;37.08;22.23;;;;;;;1.95;54.10;97450.19;5015297;28;20427;-78
2022/12/17 13:08:42;;;;;;;40.85;24.48;;;;;;;1.90;54.29;97444.53;5015196;28;20050;-78
2022/12/17 13:11:28;;;;;;;41.83;24.58;;;;;;;1.84;53.59;97440.66;5015476;28;20052;-78
2022/12/17 13:14:06;;;;;;;36.08;23.25;;;;;;;1.75;54.26;97445.59;5015021;28;20523;-78
2022/12/17 13:16:42;;;;;;;37.15;21.33;;;;;;;1.70;54.75;97440.78;5015073;28;20053;-78
2022/12/17 13:19:20;;;;;;;41.28;23.55;;;;;;;1.70;54.54;97439.97;5015332;28;20124;-78
2022/12/17 13:21:49;;;;;;;41.80;24.40;;;;;;;1.71;55.04;97441.63;5015053;28;20046;-79
2022/12/17 13:24:27;;;;;;;39.13;22.35;;;;;;;1.70;54.78;97447.69;5015360;28;20054;-78
2022/12/17 13:26:54;;;;;;;39.13;23.95;;;;;;;1.70;55.34;97445.09;5015329;28;20060;-78
2022/12/17 13:29:28;;;;;;;38.35;23.88;;;;;;;1.69;55.16;97449.44;5014846;28;20467;-78
2022/12/17 13:32:04;;;;;;;37.40;22.55;;;;;;;1.65;54.31;97443.66;5014160;28;20053;-78
2022/12/17 13:34:43;;;;;;;37.55;22.55;;;;;;;1.62;54.73;97448.22;5014930;28;20058;-78
2022/12/17 13:37:22;;;;;;;71.63;41.53;;;;;;;1.60;55.03;97450.06;5010796;28;20427;-79
2022/12/17 13:39:58;;;;;;;50.90;29.92;;;;;;;1.59;55.40;97451.78;5014294;28;20124;-79
2022/12/17 13:42:29;;;;;;;43.53;25.83;;;;;;;1.55;55.21;97452.97;4995984;28;20424;-78
2022/12/17 13:44:58;;;;;;;37.20;22.38;;;;;;;1.48;55.13;97451.72;5001354;28;20056;-79
2022/12/17 13:47:29;;;;;;;37.90;22.45;;;;;;;1.46;55.30;97457.88;5015749;28;20050;-79
2022/12/17 13:50:00;;;;;;;38.05;22.05;;;;;;;1.44;55.34;97463.13;5015350;28;20050;-77
2022/12/17 13:52:48;;;;;;;38.03;22.50;;;;;;;1.41;55.46;97463.34;5015387;28;20515;-79
2022/12/17 13:55:19;;;;;;;35.97;20.85;;;;;;;1.34;54.49;97460.38;5014899;28;20062;-79
2022/12/17 13:57:48;;;;;;;35.70;23.00;;;;;;;1.26;54.95;97472.06;5014612;28;20512;-78
2022/12/17 14:00:23;;;;;;;37.40;23.05;;;;;;;1.14;54.94;97474.53;5014564;28;20492;-79
2022/12/17 14:02:51;;;;;;;35.60;22.90;;;;;;;1.02;55.32;97476.16;5015126;28;20054;-79
2022/12/17 14:05:25;;;;;;;37.08;21.88;;;;;;;0.89;54.81;97480.44;5015301;28;20077;-79
2022/12/17 14:07:58;;;;;;;31.83;20.38;;;;;;;0.79;55.61;97479.41;5014952;28;20058;-79
2022/12/17 14:10:26;;;;;;;39.33;22.25;;;;;;;0.70;55.60;97478.25;5014804;28;20500;-80
2022/12/17 14:13:02;;;;;;;36.30;21.67;;;;;;;0.63;55.72;97478.75;5015618;28;20057;-79
2022/12/17 14:15:30;;;;;;;52.55;30.90;;;;;;;0.58;56.89;97476.47;5015763;28;20050;-79
2022/12/17 14:17:59;;;;;;;50.55;29.30;;;;;;;0.62;56.98;97480.50;5015516;28;20049;-78
2022/12/17 14:20:30;;;;;;;39.67;24.52;;;;;;;0.66;56.84;97484.50;5014684;28;20052;-79
2022/12/17 14:23:03;;;;;;;39.25;22.48;;;;;;;0.69;57.47;97484.31;5012091;28;20058;-78
2022/12/17 14:25:35;;;;;;;35.88;22.55;;;;;;;0.72;57.17;97484.13;5007299;28;20054;-79
2022/12/17 14:28:05;;;;;;;37.70;22.58;;;;;;;0.73;57.26;97479.81;5014101;28;20057;-79
2022/12/17 14:30:37;;;;;;;35.45;21.27;;;;;;;0.72;56.89;97488.41;5015760;28;20057;-79
2022/12/17 14:33:28;;;;;;;36.90;22.77;;;;;;;0.69;57.55;97489.44;5022615;28;20033;-79
2022/12/17 14:35:57;;;;;;;36.25;22.73;;;;;;;0.68;57.34;97495.50;5036907;28;20060;-79
2022/12/17 14:38:27;;;;;;;39.92;24.45;;;;;;;0.66;57.71;97502.50;5036345;28;20046;-79
2022/12/17 14:44:02;;;;;;;35.17;23.13;;;;;;;0.53;57.26;97501.63;5016263;28;20046;-79
2022/12/17 14:46:31;;;;;;;40.28;24.70;;;;;;;0.43;56.91;97497.97;5015609;28;20054;-78
2022/12/17 14:49:01;;;;;;;41.33;25.70;;;;;;;0.28;57.07;97505.72;5015240;28;20049;-78
2022/12/17 14:51:32;;;;;;;36.83;22.60;;;;;;;0.17;56.77;97503.81;5015376;28;20050;-78
2022/12/17 14:54:18;;;;;;;42.28;26.48;;;;;;;0.07;56.74;97507.06;5015575;28;20061;-79
2022/12/17 14:56:48;;;;;;;42.35;24.40;;;;;;;-0.03;56.97;97501.66;5013220;28;20073;-81
2022/12/17 14:59:30;;;;;;;44.50;24.08;;;;;;;-0.14;56.99;97494.59;5012567;28;20045;-81
2022/12/17 15:02:01;;;;;;;41.05;24.67;;;;;;;-0.25;56.99;97507.25;5013034;28;20451;-81
2022/12/17 15:04:31;;;;;;;45.38;26.15;;;;;;;-0.37;57.40;97502.84;5012529;28;20108;-81
2022/12/17 15:06:59;;;;;;;42.13;23.75;;;;;;;-0.51;57.61;97506.25;5043743;22;20048;-78
2022/12/17 15:09:28;;;;;;;56.92;24.58;;;;;;;-0.62;57.76;97512.00;5032412;28;20132;-78
2022/12/17 15:11:56;;;;;;;43.67;25.55;;;;;;;-0.70;58.23;97504.75;5044888;28;20049;-79
2022/12/17 15:14:23;;;;;;;40.53;25.10;;;;;;;-0.76;58.26;97505.13;5051901;28;20056;-78
2022/12/17 15:16:51;;;;;;;52.35;31.83;;;;;;;-0.82;57.83;97508.03;5045904;28;20052;-78
2022/12/17 15:19:19;;;;;;;53.17;30.92;;;;;;;-0.92;57.92;97502.63;5031528;28;20511;-78
2022/12/17 15:21:46;;;;;;;44.50;24.95;;;;;;;-1.01;57.82;97513.38;5019955;28;20050;-79
2022/12/17 15:24:19;;;;;;;43.10;22.48;;;;;;;-1.14;57.57;97512.41;5012215;28;20073;-78
2022/12/17 15:26:48;;;;;;;37.50;20.90;;;;;;;-1.23;57.80;97518.06;5023043;28;20054;-79
2022/12/17 15:29:16;;;;;;;37.17;21.52;;;;;;;-1.28;58.95;97506.34;5013243;28;20523;-78
2022/12/17 15:31:43;;;;;;;36.00;21.35;;;;;;;-1.27;59.70;97510.56;5023154;28;20061;-79
2022/12/17 15:34:12;;;;;;;37.80;21.85;;;;;;;-1.28;59.11;97503.78;5032000;28;20129;-78
2022/12/17 15:36:39;;;;;;;39.60;21.42;;;;;;;-1.29;59.02;97504.72;5021342;28;20546;-78
2022/12/17 15:39:08;;;;;;;36.13;20.40;;;;;;;-1.31;59.19;97501.41;5030248;28;20052;-78
2022/12/17 15:44:22;;;;;;;35.78;20.65;;;;;;;-1.30;60.07;97502.22;5016401;28;20053;-78
2022/12/17 15:46:50;;;;;;;36.17;20.95;;;;;;;-1.36;59.09;97513.63;5032479;28;20045;-78
2022/12/17 15:49:17;;;;;;;35.53;20.40;;;;;;;-1.41;59.58;97509.69;5035749;28;20059;-78
2022/12/17 15:51:45;;;;;;;33.88;20.35;;;;;;;-1.40;60.00;97511.31;5027915;28;20049;-79
2022/12/17 15:54:12;;;;;;;34.47;20.23;;;;;;;-1.46;59.67;97512.50;5015766;28;20514;-79
2022/12/17 15:56:40;;;;;;;39.35;21.52;;;;;;;-1.53;59.34;97517.13;5015689;28;20049;-78
2022/12/17 15:59:07;;;;;;;37.38;21.35;;;;;;;-1.59;59.57;97507.22;5016794;28;20419;-78
2022/12/17 16:01:36;;;;;;;35.67;20.33;;;;;;;-1.65;59.61;97515.22;5029023;28;20041;-79
2022/12/17 16:04:04;;;;;;;37.53;20.63;;;;;;;-1.67;60.00;97525.53;5039775;28;20057;-79
2022/12/17 16:06:40;;;;;;;38.08;22.35;;;;;;;-1.63;60.53;97528.75;5025521;28;20053;-80
2022/12/17 16:09:07;;;;;;;34.85;21.52;;;;;;;-1.61;60.31;97528.69;5024251;28;20111;-80
2022/12/17 16:11:35;;;;;;;38.25;22.55;;;;;;;-1.61;60.38;97534.63;5019952;28;20104;-82
2022/12/17 16:14:02;;;;;;;37.90;22.33;;;;;;;-1.60;60.76;97545.66;5019896;28;20065;-82
2022/12/17 16:16:30;;;;;;;40.90;21.50;;;;;;;-1.62;60.29;97544.94;5019705;28;20060;-84
2022/12/17 16:19:00;;;;;;;40.97;22.00;;;;;;;-1.68;60.30;97552.03;5023711;28;20133;-82
2022/12/17 16:21:28;;;;;;;38.17;22.48;;;;;;;-1.70;60.49;97561.53;5032144;28;20050;-81
2022/12/17 16:23:56;;;;;;;38.58;22.90;;;;;;;-1.65;61.28;97558.72;5021709;28;20060;-83
2022/12/17 16:26:26;;;;;;;41.13;24.23;;;;;;;-1.62;61.50;97558.53;5021529;28;20041;-80
2022/12/17 16:28:53;;;;;;;43.63;25.67;;;;;;;-1.60;61.28;97559.28;5021466;28;20056;-84
2022/12/17 16:31:21;;;;;;;37.28;23.05;;;;;;;-1.62;61.17;97562.84;5020756;28;20046;-81
2022/12/17 16:33:48;;;;;;;37.17;21.63;;;;;;;-1.63;60.89;97566.31;5021055;28;20100;-83
2022/12/17 16:36:20;;;;;;;40.90;23.08;;;;;;;-1.65;61.33;97574.06;5029912;28;20415;-81
2022/12/17 16:38:50;;;;;;;33.90;20.90;;;;;;;-1.68;60.63;97575.06;5020925;28;20053;-81
2022/12/17 16:41:18;;;;;;;37.47;21.27;;;;;;;-1.69;60.98;97573.38;5024237;28;20045;-81
2022/12/17 16:43:46;;;;;;;29.15;18.52;;;;;;;-1.71;60.73;97580.31;5030803;28;20507;-80
2022/12/17 16:46:26;;;;;;;34.28;21.52;;;;;;;-1.78;60.66;97573.88;5017618;28;20061;-81
2022/12/17 16:48:54;;;;;;;35.95;21.02;;;;;;;-1.80;60.82;97574.88;5027707;28;20087;-82
2022/12/17 16:51:25;;;;;;;34.05;19.33;;;;;;;-1.85;60.65;97579.41;5022670;28;20053;-80
2022/12/17 16:53:56;;;;;;;31.92;19.73;;;;;;;-1.90;60.62;97579.66;5027465;28;20057;-81
2022/12/17 16:56:26;;;;;;;32.20;18.65;;;;;;;-1.95;60.58;97582.44;5034509;28;20053;-81
2022/12/17 16:58:54;;;;;;;32.17;19.30;;;;;;;-2.03;60.32;97584.59;5017801;28;20428;-84
2022/12/17 17:01:23;;;;;;;33.17;19.15;;;;;;;-2.16;60.37;97588.69;5017987;28;20108;-81
2022/12/17 17:03:51;;;;;;;32.40;19.42;;;;;;;-2.24;60.45;97581.38;5017516;28;20054;-81
2022/12/17 17:06:20;;;;;;;35.92;21.92;;;;;;;-2.29;60.66;97589.28;5018233;28;20088;-81
2022/12/17 17:08:50;;;;;;;34.20;20.40;;;;;;;-2.34;60.30;97587.84;5016716;28;20046;-84
2022/12/17 17:11:20;;;;;;;34.20;19.77;;;;;;;-2.38;60.67;97597.44;5026230;28;20491;-79
2022/12/17 17:13:48;;;;;;;32.85;19.98;;;;;;;-2.40;60.65;97591.56;5035510;28;20045;-81
2022/12/17 17:16:18;;;;;;;31.52;19.52;;;;;;;-2.38;60.76;97596.59;5026501;28;20115;-81
2022/12/17 17:18:46;;;;;;;33.92;20.55;;;;;;;-2.36;60.64;97602.44;5023907;28;20057;-80
2022/12/17 17:21:25;;;;;;;36.20;20.42;;;;;;;-2.36;60.27;97594.78;5018385;28;20064;-81
2022/12/17 17:23:56;;;;;;;35.90;21.58;;;;;;;-2.35;60.14;97593.88;5016392;28;20076;-79
2022/12/17 17:26:24;;;;;;;35.00;20.45;;;;;;;-2.39;60.39;97597.50;5017194;28;20050;-81
2022/12/17 17:28:51;;;;;;;38.47;22.00;;;;;;;-2.40;60.51;97600.97;5016656;28;20531;-81
2022/12/17 17:31:19;;;;;;;38.05;21.42;;;;;;;-2.41;60.60;97604.41;5016632;28;20046;-80
2022/12/17 17:33:50;;;;;;;38.03;20.85;;;;;;;-2.44;60.61;97600.28;5016725;28;20046;-80
2022/12/17 17:36:19;;;;;;;34.10;20.73;;;;;;;-2.43;60.61;97598.53;5017134;28;20062;-81
2022/12/17 17:38:48;;;;;;;37.20;21.20;;;;;;;-2.43;60.63;97606.22;5017552;28;20052;-80
2022/12/17 17:41:19;;;;;;;35.55;20.80;;;;;;;-2.44;60.37;97607.13;5018793;28;20053;-80
2022/12/17 17:43:47;;;;;;;35.75;21.45;;;;;;;-2.49;60.41;97597.97;5018680;28;20046;-81
2022/12/17 17:46:16;;;;;;;36.03;21.65;;;;;;;-2.53;60.36;97604.13;5018233;28;20104;-81
2022/12/17 17:48:46;;;;;;;41.60;22.55;;;;;;;-2.57;60.57;97597.50;5017212;28;20116;-82
2022/12/17 17:51:18;;;;;;;36.17;20.38;;;;;;;-2.60;60.58;97605.34;5017926;28;20136;-81
2022/12/17 17:53:56;;;;;;;35.40;21.13;;;;;;;-2.64;60.48;97601.28;5017469;28;20046;-82
2022/12/17 17:56:28;;;;;;;40.35;23.30;;;;;;;-2.67;60.67;97613.34;5017153;28;20495;-81
2022/12/17 17:58:58;;;;;;;34.97;20.35;;;;;;;-2.67;60.67;97609.06;5017526;28;20050;-80
2022/12/17 18:01:28;;;;;;;40.13;22.25;;;;;;;-2.71;60.67;97610.97;5017644;28;20053;-82
2022/12/17 18:03:58;;;;;;;38.42;21.33;;;;;;;-2.72;60.84;97616.94;5016976;28;20077;-83
2022/12/17 18:06:26;;;;;;;37.60;22.17;;;;;;;-2.72;60.71;97616.13;5016902;28;20092;-84
2022/12/17 18:08:55;;;;;;;31.60;19.90;;;;;;;-2.73;60.82;97620.41;5017430;28;20666;-81
2022/12/17 18:11:27;;;;;;;39.05;21.50;;;;;;;-2.76;60.75;97619.72;5018090;28;20046;-89
2022/12/17 18:13:55;;;;;;;39.83;22.90;;;;;;;-2.76;60.86;97619.72;5022672;28;20056;-79
2022/12/17 18:16:25;;;;;;;41.70;23.58;;;;;;;-2.80;60.66;97616.53;5021248;28;20125;-79
2022/12/17 18:18:54;;;;;;;38.75;22.63;;;;;;;-2.82;60.81;97614.91;5012639;28;20081;-79
2022/12/17 18:21:22;;;;;;;42.67;26.23;;;;;;;-2.87;60.94;97622.78;5014246;28;20068;-77
2022/12/17 18:23:55;;;;;;;43.78;25.08;;;;;;;-2.93;60.89;97617.97;5013094;28;20046;-79
2022/12/17 18:26:24;;;;;;;53.67;29.27;;;;;;;-2.96;61.17;97618.94;5022273;28;20069;-78
2022/12/17 18:28:52;;;;;;;44.70;25.10;;;;;;;-2.99;61.20;97624.22;5032509;28;20136;-79
2022/12/17 18:31:22;;;;;;;44.53;24.08;;;;;;;-3.02;61.22;97624.34;5023425;28;20475;-79
2022/12/17 18:33:52;;;;;;;41.97;23.58;;;;;;;-3.01;61.74;97633.66;5025353;28;20049;-79
2022/12/17 18:36:22;;;;;;;43.65;24.20;;;;;;;-2.99;61.54;97631.88;5032483;28;20431;-79
2022/12/17 18:38:55;;;;;;;43.55;24.38;;;;;;;-2.97;61.56;97636.91;5029663;28;20057;-79
2022/12/17 18:44:11;;;;;;;45.00;23.25;;;;;;;-2.96;61.49;97634.28;5028556;28;20405;-79
2022/12/17 18:46:39;;;;;;;44.13;24.13;;;;;;;-2.94;61.43;97636.75;5032355;28;20046;-79
2022/12/17 18:49:09;;;;;;;40.45;22.98;;;;;;;-2.99;61.38;97631.88;5032488;28;20095;-80
2022/12/17 18:51:38;;;;;;;47.05;25.65;;;;;;;-3.01;61.26;97636.22;5032612;28;20438;-79
2022/12/17 18:54:07;;;;;;;44.13;25.00;;;;;;;-3.05;61.35;97634.72;5031189;28;20053;-79
2022/12/17 18:56:36;;;;;;;45.25;25.17;;;;;;;-3.09;61.25;97645.97;5032446;28;20503;-80
2022/12/17 18:59:27;;;;;;;45.83;25.92;;;;;;;-3.12;61.19;97646.94;5016790;28;20562;-79
2022/12/17 19:01:56;;;;;;;48.15;26.08;;;;;;;-3.14;61.40;97645.34;5029756;28;20207;-88
2022/12/17 19:04:25;;;;;;;43.28;25.00;;;;;;;-3.17;61.37;97648.88;5038317;28;20100;-80
2022/12/17 19:06:53;;;;;;;36.67;23.35;;;;;;;-3.16;61.48;97650.53;5014605;28;20053;-79
2022/12/17 19:09:24;;;;;;;39.20;22.52;;;;;;;-3.14;61.60;97650.47;5025282;28;20064;-79
2022/12/17 19:11:54;;;;;;;39.85;21.75;;;;;;;-3.09;62.01;97648.50;5031813;28;20068;-82
2022/12/17 19:14:22;;;;;;;38.20;20.90;;;;;;;-3.06;61.88;97648.38;5027323;28;20050;-80
2022/12/17 19:16:50;;;;;;;39.67;23.17;;;;;;;-3.02;61.58;97649.88;5013793;28;20046;-81
2022/12/17 19:19:20;;;;;;;42.85;23.15;;;;;;;-3.01;62.05;97655.81;5012665;28;20069;-82
2022/12/17 19:21:48;;;;;;;39.47;24.30;;;;;;;-3.02;61.74;97657.53;5012778;28;20046;-80
2022/12/17 19:24:18;;;;;;;40.55;24.52;;;;;;;-3.04;61.91;97658.50;5026508;28;20061;-79
2022/12/17 19:26:46;;;;;;;40.70;23.10;;;;;;;-3.03;61.83;97663.53;5031702;28;20057;-78
2022/12/17 19:29:16;;;;;;;42.10;25.15;;;;;;;-3.00;62.24;97658.28;5018429;28;20046;-81
2022/12/17 19:31:44;;;;;;;45.72;26.48;;;;;;;-2.98;61.86;97666.69;5020946;28;20376;-79
2022/12/17 19:34:14;;;;;;;52.22;27.33;;;;;;;-2.99;61.79;97664.25;5018852;28;20050;-79
2022/12/17 19:36:43;;;;;;;45.45;25.65;;;;;;;-3.03;61.77;97660.16;5014751;28;20049;-81
2022/12/17 19:39:12;;;;;;;46.38;26.27;;;;;;;-3.06;61.22;97661.16;5029913;28;20057;-81
2022/12/17 19:41:40;;;;;;;37.83;22.38;;;;;;;-3.07;61.71;97662.03;5036267;28;20042;-81
2022/12/17 19:44:11;;;;;;;39.47;21.73;;;;;;;-3.00;62.15;97667.69;5035511;28;20042;-81
2022/12/17 19:46:41;;;;;;;40.80;22.58;;;;;;;-2.95;62.02;97671.69;5035895;28;20046;-80
2022/12/17 19:49:11;;;;;;;38.83;22.13;;;;;;;-2.91;62.44;97667.25;5035153;28;20052;-84
2022/12/17 19:51:41;;;;;;;40.63;22.80;;;;;;;-2.86;62.54;97667.88;5035193;28;20514;-81
2022/12/17 19:54:11;;;;;;;41.15;21.88;;;;;;;-2.84;62.74;97663.53;5035489;28;20085;-81
2022/12/17 19:56:38;;;;;;;42.75;22.00;;;;;;;-2.80;62.75;97669.28;5035559;28;20057;-80
2022/12/17 19:59:09;;;;;;;36.33;21.45;;;;;;;-2.76;62.79;97668.25;5035417;28;20388;-82
2022/12/17 20:01:41;;;;;;;35.80;21.38;;;;;;;-2.74;62.79;97666.44;5039244;28;20049;-81
2022/12/17 20:04:10;;;;;;;36.75;22.00;;;;;;;-2.71;62.91;97664.59;5039149;28;20049;-82
2022/12/17 20:06:38;;;;;;;40.22;21.95;;;;;;;-2.70;62.62;97670.53;5037688;28;20108;-81
2022/12/17 20:09:06;;;;;;;41.25;23.52;;;;;;;-2.72;62.10;97673.13;5038390;28;20049;-80
2022/12/17 20:11:34;;;;;;;38.80;21.48;;;;;;;-2.74;62.54;97674.13;5037384;28;20412;-81
2022/12/17 20:14:06;;;;;;;40.35;20.60;;;;;;;-2.77;62.29;97666.63;5037994;28;20080;-81
2022/12/17 20:16:35;;;;;;;34.40;20.40;;;;;;;-2.82;62.24;97674.50;5037104;28;20050;-81
2022/12/17 20:19:06;;;;;;;39.08;22.02;;;;;;;-2.91;61.93;97683.41;5036402;28;20049;-81
2022/12/17 20:21:34;;;;;;;41.20;21.77;;;;;;;-2.96;62.11;97680.22;5037858;28;20053;-82
2022/12/17 20:24:02;;;;;;;42.25;22.90;;;;;;;-3.02;62.10;97675.41;5038127;28;20092;-82
2022/12/17 20:26:29;;;;;;;40.08;23.35;;;;;;;-3.03;62.60;97683.16;5040895;28;20053;-83
2022/12/17 20:28:57;;;;;;;38.13;22.08;;;;;;;-3.07;62.49;97679.91;5040231;28;20507;-81
2022/12/17 20:31:25;;;;;;;35.80;21.23;;;;;;;-3.09;62.71;97679.13;5039654;28;20056;-83
2022/12/17 20:33:53;;;;;;;40.17;23.40;;;;;;;-3.12;62.70;97676.75;5040717;28;20052;-80
2022/12/17 20:36:23;;;;;;;42.53;22.65;;;;;;;-3.16;62.53;97677.78;5040872;28;20423;-82
2022/12/17 20:38:50;;;;;;;41.28;23.00;;;;;;;-3.20;62.74;97674.53;5040284;28;20045;-81
2022/12/17 20:41:20;;;;;;;40.15;24.20;;;;;;;-3.26;62.91;97677.34;5040512;28;20050;-80
2022/12/17 20:43:48;;;;;;;41.65;22.50;;;;;;;-3.32;62.99;97678.47;5039115;28;20049;-81
2022/12/17 20:46:17;;;;;;;40.05;23.00;;;;;;;-3.35;63.07;97686.25;5039204;28;20053;-81
2022/12/17 20:48:46;;;;;;;39.17;21.65;;;;;;;-3.40;63.37;97680.53;5038386;28;20144;-81
2022/12/17 20:51:16;;;;;;;38.80;22.30;;;;;;;-3.46;63.32;97678.25;5038805;28;20084;-80
2022/12/17 20:53:46;;;;;;;37.03;21.95;;;;;;;-3.55;63.42;97676.09;5038362;28;20512;-81
2022/12/17 20:56:16;;;;;;;38.17;24.23;;;;;;;-3.61;63.57;97671.28;5039541;28;20056;-82
2022/12/17 20:58:44;;;;;;;39.78;23.48;;;;;;;-3.70;64.18;97675.06;5038740;28;20050;-81
2022/12/17 21:01:14;;;;;;;41.35;23.90;;;;;;;-3.74;64.11;97676.94;5039132;28;20045;-81
2022/12/17 21:03:42;;;;;;;39.80;23.00;;;;;;;-3.77;64.24;97678.78;5039245;28;20404;-81
2022/12/17 21:06:12;;;;;;;40.72;23.13;;;;;;;-3.80;64.31;97677.19;5039250;28;20064;-81
2022/12/17 21:08:41;;;;;;;43.03;23.70;;;;;;;-3.82;64.54;97673.06;5038194;28;20064;-81
2022/12/17 21:11:18;;;;;;;40.67;22.23;;;;;;;-3.85;64.39;97674.00;5038105;28;20638;-79
2022/12/17 21:13:46;;;;;;;44.63;24.23;;;;;;;-3.85;64.65;97678.28;5039170;28;20702;-79
2022/12/17 21:16:16;;;;;;;40.40;22.98;;;;;;;-3.83;64.82;97682.41;5039524;28;20137;-79
2022/12/17 21:18:45;;;;;;;42.88;24.23;;;;;;;-3.83;64.68;97679.03;5036692;28;20072;-78
2022/12/17 21:21:19;;;;;;;44.63;24.45;;;;;;;-3.85;64.73;97679.09;5039615;28;20068;-79
2022/12/17 21:23:48;;;;;;;42.80;23.80;;;;;;;-3.88;64.65;97681.78;5037428;28;20053;-79
2022/12/17 21:26:18;;;;;;;43.05;24.25;;;;;;;-3.90;65.02;97685.28;5038553;28;20503;-80
2022/12/17 21:28:47;;;;;;;40.15;23.58;;;;;;;-3.89;65.07;97697.13;5036038;28;20072;-80
2022/12/17 21:31:17;;;;;;;44.80;26.15;;;;;;;-3.91;65.15;97704.00;5037752;28;20049;-78
2022/12/17 21:33:45;;;;;;;42.90;25.07;;;;;;;-3.91;64.94;97704.88;5037072;28;20046;-79
2022/12/17 21:36:14;;;;;;;46.77;25.20;;;;;;;-3.90;65.00;97703.97;5035358;28;20046;-80
2022/12/17 21:38:42;;;;;;;47.67;26.90;;;;;;;-3.95;64.81;97706.72;5035088;28;20416;-81
2022/12/17 21:41:11;;;;;;;46.78;27.38;;;;;;;-3.97;65.36;97707.66;5035474;28;20080;-79
2022/12/17 21:43:40;;;;;;;48.40;27.45;;;;;;;-4.00;65.18;97702.69;5035582;28;20100;-80
2022/12/17 21:46:10;;;;;;;47.83;26.55;;;;;;;-4.07;65.19;97702.13;5037075;28;20060;-80
2022/12/17 21:48:41;;;;;;;47.47;24.83;;;;;;;-4.12;65.64;97706.59;5035751;28;20057;-79
2022/12/17 21:51:11;;;;;;;48.85;27.23;;;;;;;-4.19;65.84;97698.38;5037184;28;20148;-78
2022/12/17 21:53:42;;;;;;;48.03;26.77;;;;;;;-4.22;65.74;97706.16;5036750;28;20049;-78
2022/12/17 21:56:12;;;;;;;51.33;29.33;;;;;;;-4.23;65.63;97703.66;5036398;28;20514;-78
2022/12/17 21:58:43;;;;;;;51.00;27.63;;;;;;;-4.28;65.84;97706.41;5035735;28;20058;-79
2022/12/17 22:01:12;;;;;;;53.70;30.30;;;;;;;-4.31;65.94;97709.03;5035259;28;20042;-78
2022/12/17 22:03:46;;;;;;;45.47;25.65;;;;;;;-4.35;65.76;97705.00;5034979;28;20049;-79
2022/12/17 22:06:19;;;;;;;49.90;26.17;;;;;;;-4.39;65.96;97701.72;5034768;28;20049;-80
2022/12/17 22:08:48;;;;;;;46.65;26.17;;;;;;;-4.44;66.42;97710.44;5035758;28;20060;-80
2022/12/17 22:11:20;;;;;;;47.17;25.40;;;;;;;-4.47;66.26;97710.56;5036196;28;20053;-79
2022/12/17 22:14:09;;;;;;;47.43;26.50;;;;;;;-4.49;66.34;97723.34;5034488;28;20053;-81
2022/12/17 22:16:48;;;;;;;49.30;25.83;;;;;;;-4.53;66.14;97718.44;5034581;28;20049;-78
2022/12/17 22:19:19;;;;;;;42.88;24.67;;;;;;;-4.61;66.40;97708.59;5034161;28;20521;-79
2022/12/17 22:21:50;;;;;;;51.92;26.98;;;;;;;-4.71;66.46;97692.00;5034394;28;20504;-79
2022/12/17 22:24:25;;;;;;;47.97;26.00;;;;;;;-4.79;66.69;97684.66;5034393;28;20116;-78
2022/12/17 22:26:58;;;;;;;47.53;27.30;;;;;;;-4.85;66.64;97690.00;5035540;28;20049;-78
2022/12/17 22:34:56;;;;;;;53.90;27.27;;;;;;;-4.82;66.87;97705.16;5033984;28;20092;-78
2022/12/17 22:37:43;;;;;;;49.03;26.80;;;;;;;-4.80;66.83;97709.28;5036086;28;20054;-78
2022/12/17 22:40:36;;;;;;;51.80;27.33;;;;;;;-4.79;66.90;97716.06;5035892;28;20053;-78
2022/12/17 22:43:28;;;;;;;51.10;25.13;;;;;;;-4.78;66.89;97701.59;5034036;28;20061;-79
2022/12/17 22:46:17;;;;;;;44.88;24.23;;;;;;;-4.80;66.85;97711.84;5036224;28;20045;-78
2022/12/17 22:48:45;;;;;;;46.83;25.17;;;;;;;-4.80;66.62;97714.38;5032488;28;20542;-78
2022/12/17 22:51:13;;;;;;;52.30;26.50;;;;;;;-4.83;66.73;97721.28;5036380;28;20073;-81
2022/12/17 22:54:01;;;;;;;50.75;27.02;;;;;;;-4.85;66.61;97715.47;5033755;28;20481;-78
2022/12/17 22:56:29;;;;;;;48.30;25.23;;;;;;;-4.85;66.68;97710.38;5035020;28;20056;-77
2022/12/17 22:59:18;;;;;;;47.15;24.35;;;;;;;-4.86;66.96;97709.50;5033352;28;20392;-79
2022/12/17 23:01:47;;;;;;;42.67;24.53;;;;;;;-4.85;67.00;97701.00;5033608;28;20052;-80
2022/12/17 23:04:16;;;;;;;46.47;25.47;;;;;;;-4.85;66.93;97707.81;5033578;28;20073;-78
2022/12/17 23:06:45;;;;;;;48.00;23.37;;;;;;;-4.85;66.59;97705.28;5034327;28;20053;-78
2022/12/17 23:09:13;;;;;;;44.83;23.85;;;;;;;-4.88;66.49;97705.38;5034295;28;20053;-80
2022/12/17 23:11:41;;;;;;;49.83;25.90;;;;;;;-4.88;66.85;97706.19;5034102;28;20111;-78
2022/12/17 23:14:08;;;;;;;44.47;23.67;;;;;;;-4.88;66.74;97696.03;5034746;28;20045;-80
2022/12/17 23:16:37;;;;;;;44.80;24.50;;;;;;;-4.86;66.56;97690.88;5032925;28;20047;-78
2022/12/17 23:19:07;;;;;;;47.50;24.53;;;;;;;-4.87;66.64;97695.16;5032727;28;20049;-78
2022/12/17 23:21:35;;;;;;;42.05;23.65;;;;;;;-4.85;66.78;97692.56;5033599;28;20045;-78
2022/12/17 23:24:03;;;;;;;47.90;25.42;;;;;;;-4.88;66.39;97685.84;5032840;28;20049;-80
2022/12/17 23:26:33;;;;;;;49.58;26.58;;;;;;;-4.88;66.62;97680.75;5034053;28;20221;-80
2022/12/17 23:29:04;;;;;;;45.60;24.35;;;;;;;-4.85;66.86;97678.09;5033022;28;20073;-78
2022/12/17 23:31:34;;;;;;;43.92;23.17;;;;;;;-4.80;66.81;97691.47;5032873;28;20057;-78
2022/12/17 23:34:02;;;;;;;42.13;24.85;;;;;;;-4.76;66.84;97694.72;5032759;28;20144;-78
2022/12/17 23:36:31;;;;;;;42.27;22.50;;;;;;;-4.73;66.51;97709.88;5032986;28;20053;-78
2022/12/17 23:38:59;;;;;;;37.88;20.95;;;;;;;-4.69;66.41;97716.50;5032722;28;20046;-79
2022/12/17 23:41:29;;;;;;;41.77;23.83;;;;;;;-4.68;66.47;97697.81;5034160;28;20515;-80
2022/12/17 23:43:59;;;;;;;47.77;24.67;;;;;;;-4.72;66.65;97703.06;5032819;28;20506;-78
2022/12/17 23:46:28;;;;;;;37.83;22.73;;;;;;;-4.76;66.51;97704.91;5034327;28;20053;-79
2022/12/17 23:48:56;;;;;;;42.93;22.77;;;;;;;-4.82;66.20;97707.69;5033779;28;20059;-78
2022/12/17 23:51:25;;;;;;;44.17;24.57;;;;;;;-4.88;66.17;97716.38;5033795;28;20085;-77
2022/12/17 23:53:53;;;;;;;46.77;23.73;;;;;;;-4.96;66.57;97713.31;5033414;28;20166;-78
2022/12/17 23:56:23;;;;;;;39.30;24.17;;;;;;;-5.01;66.34;97712.66;5033383;28;20423;-78
2022/12/17 23:58:52;;;;;;;42.40;23.37;;;;;;;-5.08;66.50;97724.78;5032997;28;20072;-78
